Pinehurst, Georgia
Current Conditions -  °F | °C
As of 2:15 PM on Saturday 25 Oct 2014 (Local Time) from KCKF Reporting Station
Clear Clear  
Wind Chill: 75°   Ceiling: Unl
Heat Index: 75°   Visibility: 10mi
Dew Point: 44°   Wind: 3mph
Humidity: 32%   Direction: 340°NNW
Pressure: 30.02"   Gusts: NA
Location:  32.2°N, 83.76°W
Report Text: KCKF 251815Z AUTO 34003KT 10SM CLR 24/07 A3002 RMK AO2 T02410065
Loading
Personal Weather Stations






























Interactive Weather Map
Tropical Storm Tracking
New forecast layout! Learn more

10-Day Weather Forecast

Advertisements
Track Severe Weather on mobile